createdAt,value
2023-05-06T00:00:32.343Z,0
2023-05-06T00:01:32.382Z,0
2023-05-06T00:02:32.421Z,0
2023-05-06T00:03:32.586Z,0
2023-05-06T00:04:32.414Z,0
2023-05-06T00:05:32.343Z,0
2023-05-06T00:06:32.323Z,0
2023-05-06T00:07:32.292Z,0
2023-05-06T00:08:32.347Z,0
2023-05-06T00:09:32.317Z,0
2023-05-06T00:10:32.329Z,0
2023-05-06T00:11:32.355Z,0
2023-05-06T00:12:32.391Z,0
2023-05-06T00:13:32.324Z,0
2023-05-06T00:14:32.327Z,0
2023-05-06T00:15:32.408Z,0
2023-05-06T00:16:32.364Z,0
2023-05-06T00:17:32.393Z,0
2023-05-06T00:18:32.301Z,0
2023-05-06T00:19:32.381Z,0
2023-05-06T00:20:32.361Z,0
2023-05-06T00:21:32.316Z,0
2023-05-06T00:22:32.297Z,0
2023-05-06T00:23:32.309Z,0
2023-05-06T00:24:32.339Z,0
2023-05-06T00:25:32.347Z,0
2023-05-06T00:26:32.362Z,0
2023-05-06T00:27:32.317Z,0
2023-05-06T00:28:32.311Z,0
2023-05-06T00:29:32.319Z,0
2023-05-06T00:30:32.314Z,0
2023-05-06T00:31:32.364Z,0
2023-05-06T00:32:32.327Z,0
2023-05-06T00:33:32.328Z,0
2023-05-06T00:34:32.348Z,0
2023-05-06T00:35:32.318Z,0
2023-05-06T00:36:32.354Z,0
2023-05-06T00:37:32.334Z,0
2023-05-06T00:38:32.359Z,0
2023-05-06T00:39:32.319Z,0
2023-05-06T00:40:32.389Z,0
2023-05-06T00:41:32.356Z,0
2023-05-06T00:42:32.335Z,0
2023-05-06T00:43:32.272Z,0
2023-05-06T00:44:32.362Z,0
2023-05-06T00:45:32.325Z,0
2023-05-06T00:46:32.336Z,0
2023-05-06T00:47:32.367Z,0
2023-05-06T00:48:32.341Z,0
2023-05-06T00:49:32.318Z,0
2023-05-06T00:50:32.392Z,0
2023-05-06T00:51:32.316Z,0
2023-05-06T00:52:32.338Z,0
2023-05-06T00:53:32.311Z,0
2023-05-06T00:54:32.338Z,0
2023-05-06T00:55:32.345Z,0
2023-05-06T00:56:32.353Z,0
2023-05-06T00:57:32.333Z,0
2023-05-06T00:58:32.311Z,0
2023-05-06T00:59:32.317Z,0
2023-05-06T01:00:32.323Z,0
2023-05-06T01:01:32.347Z,0
2023-05-06T01:02:43.728Z,0
2023-05-06T01:03:32.484Z,0
2023-05-06T01:04:32.418Z,0
2023-05-06T01:05:32.327Z,0
2023-05-06T01:06:32.321Z,0
2023-05-06T01:07:32.310Z,0
2023-05-06T01:08:32.358Z,0
2023-05-06T01:09:32.316Z,0
2023-05-06T01:10:32.318Z,0
2023-05-06T01:11:32.333Z,0
2023-05-06T01:12:32.395Z,0
2023-05-06T01:13:32.312Z,0
2023-05-06T01:14:32.343Z,0
2023-05-06T01:15:32.301Z,0
2023-05-06T01:16:32.369Z,0
2023-05-06T01:17:32.338Z,0
2023-05-06T01:18:32.332Z,0
2023-05-06T01:19:32.336Z,0
2023-05-06T01:20:32.347Z,0
2023-05-06T01:21:32.329Z,0
2023-05-06T01:22:32.326Z,0
2023-05-06T01:23:32.288Z,0
2023-05-06T01:24:32.352Z,0
2023-05-06T01:25:32.357Z,0
2023-05-06T01:26:32.339Z,0
2023-05-06T01:27:32.330Z,0
2023-05-06T01:28:32.334Z,0
2023-05-06T01:29:32.301Z,0
2023-05-06T01:30:32.383Z,0
2023-05-06T01:31:32.399Z,0
2023-05-06T01:32:32.370Z,0
2023-05-06T01:33:32.328Z,0
2023-05-06T01:34:32.361Z,0
2023-05-06T01:35:32.305Z,0
2023-05-06T01:36:32.331Z,0
2023-05-06T01:37:32.298Z,0
2023-05-06T01:38:32.353Z,0
2023-05-06T01:39:32.362Z,0
2023-05-06T01:40:32.517Z,0
2023-05-06T01:41:32.478Z,0
2023-05-06T01:42:32.478Z,0
2023-05-06T01:43:32.466Z,0
2023-05-06T01:44:32.481Z,0
2023-05-06T01:45:32.454Z,0
2023-05-06T01:46:32.498Z,0
2023-05-06T01:47:32.530Z,0
2023-05-06T01:48:32.459Z,0
2023-05-06T01:49:32.429Z,0
2023-05-06T01:50:32.457Z,0
2023-05-06T01:51:32.467Z,0
2023-05-06T01:52:32.547Z,0
2023-05-06T01:53:32.392Z,0
2023-05-06T01:54:32.500Z,0
2023-05-06T01:55:32.386Z,0
2023-05-06T01:56:32.460Z,0
2023-05-06T01:57:32.452Z,0
2023-05-06T01:58:32.378Z,0
2023-05-06T01:59:32.345Z,0
2023-05-06T02:00:32.325Z,0
2023-05-06T02:01:32.318Z,0
2023-05-06T02:02:32.370Z,0
2023-05-06T02:03:32.370Z,0
2023-05-06T02:04:32.362Z,0
2023-05-06T02:05:32.325Z,0
2023-05-06T02:06:32.343Z,0
2023-05-06T02:07:32.315Z,0
2023-05-06T02:08:32.351Z,0
2023-05-06T02:09:32.316Z,0
2023-05-06T02:10:32.315Z,0
2023-05-06T02:11:32.309Z,0
2023-05-06T02:12:32.349Z,0
2023-05-06T02:13:32.306Z,0
2023-05-06T02:14:32.344Z,0
2023-05-06T02:15:32.305Z,0
2023-05-06T02:16:32.445Z,0
2023-05-06T02:17:32.350Z,0
2023-05-06T02:18:32.332Z,0
2023-05-06T02:19:32.330Z,0
2023-05-06T02:20:32.322Z,0
2023-05-06T02:21:32.324Z,0
2023-05-06T02:22:32.356Z,0
2023-05-06T02:23:32.314Z,0
2023-05-06T02:24:32.337Z,0
2023-05-06T02:25:32.311Z,0
2023-05-06T02:26:32.303Z,0
2023-05-06T02:27:32.309Z,0
2023-05-06T02:28:32.304Z,0
2023-05-06T02:29:32.314Z,0
2023-05-06T02:30:32.305Z,0
2023-05-06T02:31:32.371Z,0
2023-05-06T02:32:32.368Z,0
2023-05-06T02:33:32.320Z,0
2023-05-06T02:34:32.319Z,0
2023-05-06T02:35:32.330Z,0
2023-05-06T02:36:32.317Z,0
2023-05-06T02:37:32.325Z,0
2023-05-06T02:38:32.324Z,0
2023-05-06T02:39:32.362Z,0
2023-05-06T02:40:32.305Z,0.36
2023-05-06T02:41:32.290Z,0
2023-05-06T02:42:32.446Z,0
2023-05-06T02:43:32.316Z,0.36
2023-05-06T02:44:32.327Z,0
2023-05-06T02:45:32.302Z,0.36
2023-05-06T02:46:32.279Z,0.36
2023-05-06T02:47:32.367Z,0.85
2023-05-06T02:48:32.313Z,1.22
2023-05-06T02:49:32.320Z,0.85
2023-05-06T02:50:32.311Z,1.22
2023-05-06T02:51:32.342Z,0.36
2023-05-06T02:52:32.323Z,1.22
2023-05-06T02:53:32.344Z,1.71
2023-05-06T02:54:32.320Z,0.36
2023-05-06T02:55:32.310Z,0.85
2023-05-06T02:56:32.303Z,2.08
2023-05-06T02:57:32.344Z,2.57
2023-05-06T02:58:32.296Z,2.57
2023-05-06T02:59:32.335Z,2.57
2023-05-06T03:00:32.292Z,2.57
2023-05-06T03:01:32.406Z,2.57
2023-05-06T03:02:32.368Z,2.94
2023-05-06T03:03:32.370Z,2.94
2023-05-06T03:04:32.442Z,3.43
2023-05-06T03:05:32.306Z,3.43
2023-05-06T03:06:32.287Z,3.43
2023-05-06T03:07:32.350Z,3.79
2023-05-06T03:08:32.291Z,4.28
2023-05-06T03:09:32.316Z,4.28
2023-05-06T03:10:32.285Z,5.14
2023-05-06T03:11:32.495Z,4.77
2023-05-06T03:12:32.428Z,5.63
2023-05-06T03:13:32.315Z,4.28
2023-05-06T03:14:32.300Z,4.77
2023-05-06T03:15:32.462Z,5.63
2023-05-06T03:16:32.492Z,5.63
2023-05-06T03:17:32.465Z,5.63
2023-05-06T03:18:32.421Z,5.14
2023-05-06T03:19:32.458Z,6.48
2023-05-06T03:20:32.396Z,5.63
2023-05-06T03:21:32.391Z,6.85
2023-05-06T03:22:32.382Z,6.48
2023-05-06T03:23:32.293Z,5.99
2023-05-06T03:24:32.301Z,7.34
2023-05-06T03:25:32.476Z,7.34
2023-05-06T03:26:32.441Z,7.34
2023-05-06T03:27:32.393Z,6.85
2023-05-06T03:28:32.305Z,7.7
2023-05-06T03:29:32.430Z,7.7
2023-05-06T03:30:32.437Z,8.56
2023-05-06T03:31:32.521Z,8.56
2023-05-06T03:32:32.392Z,8.56
2023-05-06T03:33:32.332Z,9.05
2023-05-06T03:34:32.320Z,9.54
2023-05-06T03:35:32.437Z,9.05
2023-05-06T03:36:32.334Z,9.05
2023-05-06T03:37:32.457Z,9.91
2023-05-06T03:38:32.380Z,9.54
2023-05-06T03:39:32.344Z,9.91
2023-05-06T03:40:32.451Z,10.77
2023-05-06T03:41:32.433Z,10.39
2023-05-06T03:42:32.365Z,10.77
2023-05-06T03:43:32.403Z,11.25
2023-05-06T03:44:32.319Z,11.25
2023-05-06T03:45:32.406Z,11.25
2023-05-06T03:46:32.491Z,12.11
2023-05-06T03:47:32.456Z,11.25
2023-05-06T03:48:32.273Z,12.97
2023-05-06T03:49:32.410Z,12.11
2023-05-06T03:50:32.297Z,12.97
2023-05-06T03:51:32.335Z,12.97
2023-05-06T03:52:32.294Z,13.33
2023-05-06T03:53:32.312Z,12.97
2023-05-06T03:54:32.274Z,13.82
2023-05-06T03:55:32.323Z,13.82
2023-05-06T03:56:32.302Z,13.82
2023-05-06T03:57:32.341Z,13.33
2023-05-06T03:58:32.275Z,14.68
2023-05-06T03:59:32.318Z,14.68
2023-05-06T04:00:32.292Z,15.53
2023-05-06T04:01:32.308Z,15.17
2023-05-06T04:02:32.393Z,15.17
2023-05-06T04:03:32.401Z,15.17
2023-05-06T04:04:32.264Z,15.53
2023-05-06T04:05:32.392Z,15.53
2023-05-06T04:06:32.332Z,16.39
2023-05-06T04:07:32.302Z,16.02
2023-05-06T04:08:32.328Z,16.39
2023-05-06T04:09:32.326Z,16.39
2023-05-06T04:10:32.304Z,17.25
2023-05-06T04:11:32.302Z,17.25
2023-05-06T04:12:32.325Z,17.25
2023-05-06T04:13:32.306Z,17.25
2023-05-06T04:14:32.307Z,18.11
2023-05-06T04:15:32.310Z,17.73
2023-05-06T04:16:32.335Z,17.73
2023-05-06T04:17:32.327Z,18.11
2023-05-06T04:18:32.262Z,18.11
2023-05-06T04:19:32.288Z,18.6
2023-05-06T04:20:32.295Z,19.08
2023-05-06T04:21:32.376Z,18.11
2023-05-06T04:22:32.345Z,19.08
2023-05-06T04:23:32.323Z,19.45
2023-05-06T04:24:32.304Z,19.45
2023-05-06T04:25:32.306Z,19.94
2023-05-06T04:26:32.328Z,19.94
2023-05-06T04:27:32.360Z,19.94
2023-05-06T04:28:32.289Z,20.31
2023-05-06T04:29:32.307Z,19.94
2023-05-06T04:30:32.360Z,20.8
2023-05-06T04:31:32.277Z,20.8
2023-05-06T04:32:32.356Z,20.8
2023-05-06T04:33:32.301Z,21.16
2023-05-06T04:34:32.284Z,21.65
2023-05-06T04:35:32.308Z,21.16
2023-05-06T04:36:32.402Z,21.65
2023-05-06T04:37:32.286Z,21.65
2023-05-06T04:38:32.425Z,21.65
2023-05-06T04:39:32.302Z,21.65
2023-05-06T04:40:32.329Z,21.65
2023-05-06T04:41:32.298Z,21.65
2023-05-06T04:42:32.290Z,22.02
2023-05-06T04:43:32.309Z,22.51
2023-05-06T04:44:32.312Z,22.02
2023-05-06T04:45:32.313Z,22.87
2023-05-06T04:46:32.285Z,22.87
2023-05-06T04:47:32.466Z,22.87
2023-05-06T04:48:32.446Z,22.02
2023-05-06T04:49:32.329Z,23.36
2023-05-06T04:50:32.283Z,23.85
2023-05-06T04:51:32.366Z,23.85
2023-05-06T04:52:32.289Z,23.36
2023-05-06T04:53:32.320Z,24.22
2023-05-06T04:54:32.281Z,25.07
2023-05-06T04:55:32.322Z,23.85
2023-05-06T04:56:32.328Z,27.28
2023-05-06T04:57:32.429Z,58.97
2023-05-06T04:58:32.275Z,62.02
2023-05-06T04:59:32.303Z,39.02
2023-05-06T05:00:32.308Z,25.56
2023-05-06T05:01:32.352Z,25.07
2023-05-06T05:02:32.420Z,25.94
2023-05-06T05:03:32.433Z,25.94
2023-05-06T05:04:32.331Z,26.42
2023-05-06T05:05:32.299Z,25.94
2023-05-06T05:06:32.303Z,26.42
2023-05-06T05:07:32.286Z,26.79
2023-05-06T05:08:32.369Z,26.79
2023-05-06T05:09:32.297Z,26.79
2023-05-06T05:10:32.274Z,28.14
2023-05-06T05:11:32.292Z,27.28
2023-05-06T05:12:32.383Z,27.65
2023-05-06T05:13:32.306Z,46.73
2023-05-06T05:14:32.308Z,117.07
2023-05-06T05:15:32.278Z,160.51
2023-05-06T05:16:32.335Z,163.44
2023-05-06T05:17:32.353Z,165.27
2023-05-06T05:18:32.325Z,167.85
2023-05-06T05:19:32.346Z,170.9
2023-05-06T05:20:32.323Z,172.12
2023-05-06T05:21:32.385Z,175.19
2023-05-06T05:22:32.331Z,176.04
2023-05-06T05:23:32.323Z,176.04
2023-05-06T05:24:32.293Z,177.75
2023-05-06T05:25:32.302Z,179.59
2023-05-06T05:26:32.319Z,183.02
2023-05-06T05:27:32.298Z,184.73
2023-05-06T05:28:32.251Z,187.78
2023-05-06T05:29:32.375Z,191.7
2023-05-06T05:30:32.438Z,196.84
2023-05-06T05:31:32.480Z,198.67
2023-05-06T05:32:32.396Z,202.1
2023-05-06T05:33:32.454Z,205.15
2023-05-06T05:34:32.293Z,205.52
2023-05-06T05:35:32.316Z,206.01
2023-05-06T05:36:32.300Z,206.87
2023-05-06T05:37:32.493Z,210.29
2023-05-06T05:38:32.271Z,212.98
2023-05-06T05:39:32.323Z,217.76
2023-05-06T05:40:32.254Z,218.12
2023-05-06T05:41:32.389Z,223.39
2023-05-06T05:42:32.263Z,225.95
2023-05-06T05:43:32.352Z,224.61
2023-05-06T05:44:32.309Z,221.67
2023-05-06T05:45:32.336Z,218.98
2023-05-06T05:46:32.320Z,213.84
2023-05-06T05:47:32.392Z,213.84
2023-05-06T05:48:32.290Z,215.92
2023-05-06T05:49:32.323Z,219.83
2023-05-06T05:50:32.272Z,226.81
2023-05-06T05:51:32.318Z,232.44
2023-05-06T05:52:32.330Z,237.7
2023-05-06T05:53:32.281Z,243.32
2023-05-06T05:54:32.266Z,249.44
2023-05-06T05:55:32.334Z,253.24
2023-05-06T05:56:32.301Z,255.44
2023-05-06T05:57:32.297Z,257.64
2023-05-06T05:58:32.283Z,254.58
2023-05-06T05:59:32.309Z,252.01
2023-05-06T06:00:32.293Z,248.46
2023-05-06T06:01:32.279Z,243.32
2023-05-06T06:02:32.381Z,245.04
2023-05-06T06:03:32.477Z,252.01
2023-05-06T06:04:32.321Z,258.49
2023-05-06T06:05:32.340Z,268.52
2023-05-06T06:06:32.298Z,275.86
2023-05-06T06:07:32.287Z,239.78
2023-05-06T06:08:32.299Z,224.61
2023-05-06T06:09:32.308Z,215.07
2023-05-06T06:10:32.296Z,199.53
2023-05-06T06:11:32.297Z,201.24
2023-05-06T06:12:32.298Z,203.81
2023-05-06T06:13:32.454Z,244.67
2023-05-06T06:14:32.292Z,209.93
2023-05-06T06:15:32.345Z,178.24
2023-05-06T06:16:32.384Z,179.59
2023-05-06T06:17:32.338Z,198.18
2023-05-06T06:18:32.272Z,172.61
2023-05-06T06:19:32.258Z,196.47
2023-05-06T06:20:32.248Z,232.44
2023-05-06T06:21:32.339Z,224.61
2023-05-06T06:22:32.289Z,176.04
2023-05-06T06:23:32.310Z,175.67
2023-05-06T06:24:32.311Z,166.13
2023-05-06T06:25:32.319Z,154.39
2023-05-06T06:26:32.267Z,201.61
2023-05-06T06:27:32.261Z,230.73
2023-05-06T06:28:32.307Z,233.78
2023-05-06T06:29:32.331Z,143.99
2023-05-06T06:30:32.269Z,147.9
2023-05-06T06:31:32.307Z,134.81
2023-05-06T06:32:32.335Z,104.1
2023-05-06T06:33:32.428Z,59.82
2023-05-06T06:34:32.292Z,59.82
2023-05-06T06:35:32.298Z,73.65
2023-05-06T06:36:32.310Z,70.71
2023-05-06T06:37:32.321Z,70.71
2023-05-06T06:38:32.268Z,78.05
2023-05-06T06:39:32.245Z,69.73
2023-05-06T06:40:32.284Z,69.36
2023-05-06T06:41:32.303Z,91.02
2023-05-06T06:42:32.876Z,117.07
2023-05-06T06:43:32.269Z,121.36
2023-05-06T06:44:32.282Z,173.47
2023-05-06T06:45:32.336Z,182.15
2023-05-06T06:46:32.272Z,153.53
2023-05-06T06:47:32.296Z,106.19
2023-05-06T06:48:32.274Z,129.68
2023-05-06T06:49:32.316Z,175.19
2023-05-06T06:50:32.269Z,176.04
2023-05-06T06:51:32.256Z,151.82
2023-05-06T06:52:32.256Z,171.76
2023-05-06T06:53:32.325Z,172.12
2023-05-06T06:54:32.300Z,127.47
2023-05-06T06:55:32.252Z,153.9
2023-05-06T06:56:32.333Z,170.05
2023-05-06T06:57:32.300Z,147.9
2023-05-06T06:58:32.294Z,129.19
2023-05-06T06:59:32.228Z,198.18
2023-05-06T07:00:32.320Z,244.67
2023-05-06T07:01:32.352Z,220.32
2023-05-06T07:02:32.333Z,167.36
2023-05-06T07:03:32.212Z,177.75
2023-05-06T07:04:32.334Z,198.67
2023-05-06T07:05:32.314Z,217.27
2023-05-06T07:06:32.282Z,171.76
2023-05-06T07:07:32.276Z,193.41
2023-05-06T07:08:32.256Z,242.47
2023-05-06T07:09:33.829Z,298.37
2023-05-06T07:10:32.294Z,231.22
2023-05-06T07:11:32.224Z,141.42
2023-05-06T07:12:32.268Z,172.98
2023-05-06T07:13:32.293Z,270.24
2023-05-06T07:14:32.291Z,329.2
2023-05-06T07:15:32.229Z,381.69
2023-05-06T07:16:32.466Z,383.89
2023-05-06T07:17:32.300Z,375.57
2023-05-06T07:18:32.256Z,415.08
2023-05-06T07:19:32.199Z,468.42
2023-05-06T07:20:32.257Z,476.25
2023-05-06T07:21:32.322Z,477.96
2023-05-06T07:22:32.235Z,469.77
2023-05-06T07:23:32.387Z,461.08
2023-05-06T07:24:32.300Z,452.89
2023-05-06T07:25:32.298Z,454.11
2023-05-06T07:26:32.245Z,458.03
2023-05-06T07:27:32.156Z,464.14
2023-05-06T07:28:32.332Z,473.2
2023-05-06T07:29:32.255Z,488
2023-05-06T07:30:32.402Z,496.2
2023-05-06T07:31:32.371Z,503.65
2023-05-06T07:32:32.358Z,508.79
2023-05-06T07:33:32.261Z,514.91
2023-05-06T07:34:32.283Z,520.05
2023-05-06T07:35:32.180Z,522.25
2023-05-06T07:36:32.283Z,522.25
2023-05-06T07:37:32.322Z,525.31
2023-05-06T07:38:32.327Z,527.02
2023-05-06T07:39:32.190Z,526.16
2023-05-06T07:40:32.280Z,523.96
2023-05-06T07:41:32.288Z,524.45
2023-05-06T07:42:32.287Z,527.02
2023-05-06T07:43:32.133Z,530.45
2023-05-06T07:44:32.289Z,532.65
2023-05-06T07:45:32.236Z,538.28
2023-05-06T07:46:32.331Z,544.76
2023-05-06T07:47:32.338Z,548.67
2023-05-06T07:48:32.675Z,551.37
2023-05-06T07:49:32.276Z,553.94
2023-05-06T07:50:32.290Z,555.28
2023-05-06T07:51:32.177Z,557.36
2023-05-06T07:52:32.282Z,563.48
2023-05-06T07:53:32.231Z,564.82
2023-05-06T07:54:32.343Z,569.6
2023-05-06T07:55:33.879Z,571.67
2023-05-06T07:56:32.291Z,573.88
2023-05-06T07:57:32.253Z,576.08
2023-05-06T07:58:32.288Z,573.39
2023-05-06T07:59:32.106Z,568.25
2023-05-06T08:00:32.279Z,560.91
2023-05-06T08:01:32.263Z,555.28
2023-05-06T08:02:32.430Z,554.3
2023-05-06T08:03:32.300Z,557.85
2023-05-06T08:04:32.324Z,560.42
2023-05-06T08:05:32.259Z,557.36
2023-05-06T08:06:32.277Z,560.42
2023-05-06T08:07:32.176Z,568.62
2023-05-06T08:08:32.320Z,574.74
2023-05-06T08:09:32.316Z,576.94
2023-05-06T08:10:32.317Z,580.36
2023-05-06T08:11:32.153Z,589.05
2023-05-06T08:12:32.287Z,592.11
2023-05-06T08:13:32.308Z,596.87
2023-05-06T08:14:32.283Z,602.5
2023-05-06T08:15:32.074Z,612.53
2023-05-06T08:16:32.332Z,616.82
2023-05-06T08:17:32.296Z,625.01
2023-05-06T08:18:32.378Z,628.56
2023-05-06T08:19:32.121Z,634.19
2023-05-06T08:20:32.301Z,636.39
2023-05-06T08:21:32.274Z,639.33
2023-05-06T08:22:32.280Z,638.96
2023-05-06T08:23:32.064Z,635.04
2023-05-06T08:24:32.278Z,628.07
2023-05-06T08:25:32.260Z,621.59
2023-05-06T08:26:32.286Z,615.47
2023-05-06T08:27:32.067Z,622.08
2023-05-06T08:28:32.276Z,628.07
2023-05-06T08:29:32.273Z,638.96
2023-05-06T08:30:32.324Z,648.01
2023-05-06T08:31:32.141Z,587.7
2023-05-06T08:32:32.358Z,658.9
2023-05-06T08:33:32.290Z,658.04
2023-05-06T08:34:32.288Z,657.55
2023-05-06T08:35:32.130Z,657.55
2023-05-06T08:36:32.276Z,657.55
2023-05-06T08:37:32.367Z,655.48
2023-05-06T08:38:32.246Z,655.84
2023-05-06T08:39:32.083Z,658.9
2023-05-06T08:40:32.228Z,648.01
2023-05-06T08:41:32.266Z,653.28
2023-05-06T08:42:32.289Z,646.3
2023-05-06T08:43:32.111Z,643.73
2023-05-06T08:44:32.262Z,638.96
2023-05-06T08:45:32.306Z,633.7
2023-05-06T08:46:32.249Z,638.11
2023-05-06T08:47:32.117Z,639.82
2023-05-06T08:48:32.274Z,646.79
2023-05-06T08:49:32.285Z,653.64
2023-05-06T08:50:32.267Z,660.24
2023-05-06T08:51:32.120Z,662.82
2023-05-06T08:52:32.258Z,664.16
2023-05-06T08:53:32.309Z,669.3
2023-05-06T08:54:32.299Z,678.48
2023-05-06T08:55:32.055Z,689.24
2023-05-06T08:56:32.272Z,696.21
2023-05-06T08:57:32.272Z,701.84
2023-05-06T08:58:32.261Z,707.96
2023-05-06T08:59:32.065Z,708.33
2023-05-06T09:00:32.251Z,711.02
2023-05-06T09:01:32.353Z,471.97
2023-05-06T09:02:32.385Z,710.04
2023-05-06T09:03:32.283Z,312.69
2023-05-06T09:04:32.290Z,635.53
2023-05-06T09:05:32.304Z,452.03
2023-05-06T09:06:32.262Z,701.84
2023-05-06T09:07:32.045Z,617.67
2023-05-06T09:08:32.262Z,359.18
2023-05-06T09:09:32.323Z,530.45
2023-05-06T09:10:32.282Z,349.15
2023-05-06T09:11:32.077Z,219.83
2023-05-06T09:12:32.219Z,338.26
2023-05-06T09:13:32.351Z,289.69
2023-05-06T09:14:32.324Z,263.27
2023-05-06T09:15:32.020Z,360.03
2023-05-06T09:16:32.301Z,300.09
2023-05-06T09:17:32.299Z,341.32
2023-05-06T09:18:32.237Z,293.61
2023-05-06T09:19:32.048Z,124.05
2023-05-06T09:20:32.283Z,189.49
2023-05-06T09:21:32.281Z,205.52
2023-05-06T09:22:32.264Z,177.75
2023-05-06T09:23:32.015Z,174.33
2023-05-06T09:24:32.245Z,261.07
2023-05-06T09:25:32.301Z,238.92
2023-05-06T09:26:32.283Z,187.29
2023-05-06T09:27:32.008Z,231.58
2023-05-06T09:28:32.288Z,291.03
2023-05-06T09:29:32.295Z,202.95
2023-05-06T09:30:32.284Z,201.24
2023-05-06T09:31:32.136Z,342.17
2023-05-06T09:32:32.276Z,316.61
2023-05-06T09:33:32.312Z,308.41
2023-05-06T09:34:32.277Z,275.37
2023-05-06T09:35:32.001Z,315.38
2023-05-06T09:36:32.264Z,305.84
2023-05-06T09:37:32.260Z,222.9
2023-05-06T09:38:32.243Z,330.92
2023-05-06T09:39:32.004Z,427.2
2023-05-06T09:40:32.278Z,489.71
2023-05-06T09:41:32.293Z,469.28
2023-05-06T09:42:32.282Z,281
2023-05-06T09:43:32.007Z,355.26
2023-05-06T09:44:32.248Z,282.84
2023-05-06T09:45:32.339Z,351.35
2023-05-06T09:46:32.269Z,327.49
2023-05-06T09:47:32.039Z,392.08
2023-05-06T09:48:32.254Z,337.03
2023-05-06T09:49:32.247Z,406.03
2023-05-06T09:50:32.246Z,437.23
2023-05-06T09:51:31.946Z,235.98
2023-05-06T09:52:32.394Z,353.06
2023-05-06T09:53:32.328Z,349.15
2023-05-06T09:54:32.240Z,127.96
2023-05-06T09:55:32.126Z,532.65
2023-05-06T09:56:32.289Z,436.37
2023-05-06T09:57:32.372Z,476.74
2023-05-06T09:58:32.256Z,520.05
2023-05-06T09:59:31.997Z,489.71
2023-05-06T10:00:32.299Z,539.13
2023-05-06T10:01:36.747Z,461.08
2023-05-06T10:02:32.435Z,271.95
2023-05-06T10:03:32.053Z,251.52
2023-05-06T10:04:32.387Z,380.34
2023-05-06T10:05:32.311Z,117.44
2023-05-06T10:06:32.256Z,135.3
2023-05-06T10:07:31.948Z,256.29
2023-05-06T10:08:32.249Z,383.03
2023-05-06T10:09:32.266Z,298.01
2023-05-06T10:10:32.268Z,103.13
2023-05-06T10:11:32.134Z,195.98
2023-05-06T10:12:32.249Z,222.04
2023-05-06T10:13:32.307Z,303.15
2023-05-06T10:14:32.233Z,393.43
2023-05-06T10:15:31.986Z,239.41
2023-05-06T10:16:32.385Z,318.81
2023-05-06T10:17:32.307Z,233.78
2023-05-06T10:18:32.267Z,345.23
2023-05-06T10:19:32.058Z,230.73
2023-05-06T10:20:32.252Z,423.77
2023-05-06T10:21:32.304Z,275.37
2023-05-06T10:22:32.295Z,448.97
2023-05-06T10:23:31.930Z,281.49
2023-05-06T10:24:32.312Z,244.67
2023-05-06T10:25:32.289Z,116.22
2023-05-06T10:26:32.263Z,279.78
2023-05-06T10:27:31.963Z,155.73
2023-05-06T10:28:32.255Z,383.03
2023-05-06T10:29:32.271Z,428.18
2023-05-06T10:30:32.242Z,309.27
2023-05-06T10:31:31.930Z,317.46
2023-05-06T10:32:32.377Z,461.57
2023-05-06T10:33:32.279Z,420.35
2023-05-06T10:34:32.285Z,171.27
2023-05-06T10:35:31.879Z,238.56
2023-05-06T10:36:32.281Z,215.07
2023-05-06T10:37:32.268Z,105.82
2023-05-06T10:38:32.263Z,180.81
2023-05-06T10:39:31.894Z,85.02
2023-05-06T10:40:32.237Z,190.84
2023-05-06T10:41:32.270Z,169.56
2023-05-06T10:42:32.237Z,148.76
2023-05-06T10:43:31.964Z,341.32
2023-05-06T10:44:32.214Z,280.15
2023-05-06T10:45:32.400Z,314.03
2023-05-06T10:46:32.250Z,157.44
2023-05-06T10:47:31.963Z,452.4
2023-05-06T10:48:32.263Z,219.83
2023-05-06T10:49:32.320Z,267.18
2023-05-06T10:50:32.268Z,432.45
2023-05-06T10:51:31.905Z,149.98
2023-05-06T10:52:32.232Z,212.49
2023-05-06T10:53:32.267Z,66.8
2023-05-06T10:54:32.274Z,142.27
2023-05-06T10:55:31.850Z,64.1
2023-05-06T10:56:32.299Z,263.27
2023-05-06T10:57:32.314Z,226.44
2023-05-06T10:58:32.210Z,223.39
2023-05-06T10:59:31.898Z,281.49
2023-05-06T11:00:32.291Z,272.32
2023-05-06T11:01:32.441Z,308.78
2023-05-06T11:02:32.396Z,286.27
2023-05-06T11:03:32.037Z,238.56
2023-05-06T11:04:32.244Z,365.17
2023-05-06T11:05:32.280Z,399.91
2023-05-06T11:06:32.230Z,182.53
2023-05-06T11:07:31.824Z,175.67
2023-05-06T11:08:32.247Z,275.37
2023-05-06T11:09:32.286Z,367.86
2023-05-06T11:10:32.304Z,349.15
2023-05-06T11:11:31.849Z,189.98
2023-05-06T11:12:32.229Z,244.67
2023-05-06T11:13:32.342Z,304
2023-05-06T11:14:32.265Z,343.52
2023-05-06T11:15:31.826Z,364.81
2023-05-06T11:16:32.271Z,569.6
2023-05-06T11:17:32.319Z,311.83
2023-05-06T11:18:32.221Z,383.89
2023-05-06T11:19:31.846Z,295.32
2023-05-06T11:20:32.261Z,501.82
2023-05-06T11:21:32.356Z,381.32
2023-05-06T11:22:32.239Z,418.51
2023-05-06T11:23:31.852Z,483.23
2023-05-06T11:24:32.226Z,558.71
2023-05-06T11:25:32.235Z,496.2
2023-05-06T11:26:32.370Z,492.28
2023-05-06T11:27:31.819Z,321.37
2023-05-06T11:28:32.244Z,254.21
2023-05-06T11:29:32.225Z,293.24
2023-05-06T11:30:32.248Z,342.17
2023-05-06T11:31:31.959Z,252.87
2023-05-06T11:32:32.371Z,214.7
2023-05-06T11:33:32.222Z,201.24
2023-05-06T11:34:32.276Z,327.49
2023-05-06T11:35:31.821Z,533.14
2023-05-06T11:36:32.271Z,455.45
2023-05-06T11:37:32.262Z,205.52
2023-05-06T11:38:32.261Z,418.51
2023-05-06T11:39:33.433Z,427.2
2023-05-06T11:40:32.261Z,326.15
2023-05-06T11:41:32.233Z,336.54
2023-05-06T11:42:32.278Z,241.98
2023-05-06T11:43:31.786Z,422.06
2023-05-06T11:44:32.234Z,291.89
2023-05-06T11:45:32.257Z,389.88
2023-05-06T11:46:32.334Z,320.52
2023-05-06T11:47:31.807Z,223.75
2023-05-06T11:48:32.261Z,472.34
2023-05-06T11:49:32.248Z,554.3
2023-05-06T11:50:32.318Z,546.6
2023-05-06T11:51:31.789Z,210.29
2023-05-06T11:52:32.265Z,238.56
2023-05-06T11:53:32.294Z,279.29
2023-05-06T11:54:32.249Z,381.69
2023-05-06T11:55:31.788Z,287.12
2023-05-06T11:56:32.248Z,246.75
2023-05-06T11:57:32.264Z,298.86
2023-05-06T11:58:32.354Z,488
2023-05-06T11:59:31.761Z,458.88
2023-05-06T12:00:32.279Z,498.89
2023-05-06T12:01:32.305Z,518.33
2023-05-06T12:02:32.304Z,242.83
2023-05-06T12:03:32.025Z,438.08
2023-05-06T12:04:32.384Z,524.45
2023-05-06T12:05:32.212Z,95.79
2023-05-06T12:06:32.225Z,461.08
2023-05-06T12:07:31.749Z,477.6
2023-05-06T12:08:32.286Z,435.03
2023-05-06T12:09:32.229Z,321.01
2023-05-06T12:10:32.260Z,419
2023-05-06T12:11:31.752Z,402.98
2023-05-06T12:12:32.287Z,500.11
2023-05-06T12:13:32.225Z,287.12
2023-05-06T12:14:32.253Z,331.78
2023-05-06T12:15:31.733Z,506.59
2023-05-06T12:16:32.297Z,422.42
2023-05-06T12:17:32.262Z,579.99
2023-05-06T12:18:32.248Z,571.67
2023-05-06T12:19:31.746Z,559.57
2023-05-06T12:20:32.265Z,612.9
2023-05-06T12:21:32.274Z,607.28
2023-05-06T12:22:32.248Z,601.16
2023-05-06T12:23:32.069Z,587.33
2023-05-06T12:24:32.458Z,578.16
2023-05-06T12:25:39.873Z,571.31
2023-05-06T12:26:43.927Z,578.16
2023-05-06T12:27:47.757Z,581.22
2023-05-06T12:28:51.778Z,593.45
2023-05-06T12:29:55.694Z,466.71
2023-05-06T12:30:59.727Z,619.87
2023-05-06T12:32:03.906Z,540.48
2023-05-06T12:33:07.832Z,574.74
2023-05-06T12:34:11.771Z,619.38
2023-05-06T12:35:15.722Z,614.25
2023-05-06T12:36:19.866Z,619.38
2023-05-06T12:37:23.802Z,507.08
2023-05-06T12:38:27.725Z,624.65
2023-05-06T12:39:31.750Z,622.08
2023-05-06T12:40:32.311Z,551.37
2023-05-06T12:41:32.242Z,622.45
2023-05-06T12:42:32.216Z,619.38
2023-05-06T12:43:31.705Z,620.24
2023-05-06T12:44:32.254Z,615.11
2023-05-06T12:45:32.267Z,614.62
2023-05-06T12:46:32.255Z,615.47
2023-05-06T12:47:31.705Z,612.9
2023-05-06T12:48:32.274Z,613.39
2023-05-06T12:49:32.222Z,607.28
2023-05-06T12:50:32.258Z,606.79
2023-05-06T12:51:31.699Z,606.79
2023-05-06T12:52:32.280Z,603.85
2023-05-06T12:53:32.241Z,608.62
2023-05-06T12:54:32.230Z,605.56
2023-05-06T12:55:31.699Z,608.62
2023-05-06T12:56:32.253Z,604.21
2023-05-06T12:57:32.287Z,602.99
2023-05-06T12:58:32.234Z,602.99
2023-05-06T12:59:31.707Z,600.79
2023-05-06T13:00:32.330Z,599.94
2023-05-06T13:01:32.353Z,593.82
2023-05-06T13:02:32.292Z,590.39
2023-05-06T13:03:31.855Z,589.91